sensor_id;sensor_type;location;lat;lon;timestamp;P1;durP1;ratioP1;P2;durP2;ratioP2
4835;SDS011;66719;51.226;6.902;2023-05-15T00:00:43;14.80;;;4.37;;
4835;SDS011;66719;51.226;6.902;2023-05-15T00:03:09;12.30;;;4.70;;
4835;SDS011;66719;51.226;6.902;2023-05-15T00:05:37;12.43;;;4.63;;
4835;SDS011;66719;51.226;6.902;2023-05-15T00:08:04;13.17;;;5.30;;
4835;SDS011;66719;51.226;6.902;2023-05-15T00:10:31;11.43;;;5.20;;
4835;SDS011;66719;51.226;6.902;2023-05-15T00:12:57;15.33;;;5.07;;
4835;SDS011;66719;51.226;6.902;2023-05-15T00:15:24;12.60;;;5.00;;
4835;SDS011;66719;51.226;6.902;2023-05-15T00:17:51;11.40;;;5.70;;
4835;SDS011;66719;51.226;6.902;2023-05-15T00:20:18;10.63;;;5.37;;
4835;SDS011;66719;51.226;6.902;2023-05-15T00:22:44;13.27;;;5.57;;
4835;SDS011;66719;51.226;6.902;2023-05-15T00:25:11;21.07;;;5.70;;
4835;SDS011;66719;51.226;6.902;2023-05-15T00:27:37;14.10;;;5.27;;
4835;SDS011;66719;51.226;6.902;2023-05-15T00:30:04;13.77;;;5.37;;
4835;SDS011;66719;51.226;6.902;2023-05-15T00:32:31;12.13;;;6.40;;
4835;SDS011;66719;51.226;6.902;2023-05-15T00:34:57;15.43;;;6.43;;
4835;SDS011;66719;51.226;6.902;2023-05-15T00:37:23;13.63;;;6.70;;
4835;SDS011;66719;51.226;6.902;2023-05-15T00:39:50;14.60;;;6.10;;
4835;SDS011;66719;51.226;6.902;2023-05-15T00:42:17;13.07;;;6.60;;
4835;SDS011;66719;51.226;6.902;2023-05-15T00:44:44;13.70;;;6.10;;
4835;SDS011;66719;51.226;6.902;2023-05-15T00:47:11;12.53;;;6.67;;
4835;SDS011;66719;51.226;6.902;2023-05-15T00:49:37;13.57;;;6.47;;
4835;SDS011;66719;51.226;6.902;2023-05-15T00:52:04;13.27;;;6.37;;
4835;SDS011;66719;51.226;6.902;2023-05-15T00:54:33;15.87;;;6.20;;
4835;SDS011;66719;51.226;6.902;2023-05-15T00:57:00;12.90;;;5.50;;
4835;SDS011;66719;51.226;6.902;2023-05-15T00:59:29;17.50;;;6.57;;
4835;SDS011;66719;51.226;6.902;2023-05-15T01:01:56;11.83;;;5.60;;
4835;SDS011;66719;51.226;6.902;2023-05-15T01:04:23;14.87;;;5.77;;
4835;SDS011;66719;51.226;6.902;2023-05-15T01:06:50;14.20;;;5.50;;
4835;SDS011;66719;51.226;6.902;2023-05-15T01:09:19;12.27;;;5.43;;
4835;SDS011;66719;51.226;6.902;2023-05-15T01:11:49;14.90;;;5.80;;
4835;SDS011;66719;51.226;6.902;2023-05-15T01:14:18;14.83;;;5.80;;
4835;SDS011;66719;51.226;6.902;2023-05-15T01:16:45;12.23;;;6.00;;
4835;SDS011;66719;51.226;6.902;2023-05-15T01:19:11;14.73;;;6.50;;
4835;SDS011;66719;51.226;6.902;2023-05-15T01:24:35;16.00;;;7.00;;
4835;SDS011;66719;51.226;6.902;2023-05-15T01:27:27;11.80;;;5.50;;
4835;SDS011;66719;51.226;6.902;2023-05-15T01:33:33;18.13;;;6.43;;
4835;SDS011;66719;51.226;6.902;2023-05-15T01:40:50;13.00;;;6.20;;
4835;SDS011;66719;51.226;6.902;2023-05-15T01:43:26;14.30;;;6.90;;
4835;SDS011;66719;51.226;6.902;2023-05-15T01:45:55;13.90;;;6.80;;
4835;SDS011;66719;51.226;6.902;2023-05-15T01:48:24;19.80;;;8.30;;
4835;SDS011;66719;51.226;6.902;2023-05-15T01:50:53;15.20;;;7.23;;
4835;SDS011;66719;51.226;6.902;2023-05-15T01:53:23;18.50;;;7.57;;
4835;SDS011;66719;51.226;6.902;2023-05-15T01:55:51;16.07;;;7.90;;
4835;SDS011;66719;51.226;6.902;2023-05-15T01:58:19;18.07;;;7.17;;
4835;SDS011;66719;51.226;6.902;2023-05-15T02:00:46;15.43;;;7.07;;
4835;SDS011;66719;51.226;6.902;2023-05-15T02:03:13;15.97;;;7.60;;
4835;SDS011;66719;51.226;6.902;2023-05-15T02:05:40;16.90;;;7.23;;
4835;SDS011;66719;51.226;6.902;2023-05-15T02:08:08;14.03;;;7.20;;
4835;SDS011;66719;51.226;6.902;2023-05-15T02:10:36;19.20;;;9.20;;
4835;SDS011;66719;51.226;6.902;2023-05-15T02:13:03;17.23;;;8.97;;
4835;SDS011;66719;51.226;6.902;2023-05-15T02:15:32;15.97;;;7.47;;
4835;SDS011;66719;51.226;6.902;2023-05-15T02:17:59;17.97;;;9.03;;
4835;SDS011;66719;51.226;6.902;2023-05-15T02:20:26;30.17;;;15.13;;
4835;SDS011;66719;51.226;6.902;2023-05-15T02:22:52;46.83;;;20.50;;
4835;SDS011;66719;51.226;6.902;2023-05-15T02:25:19;49.40;;;22.07;;
4835;SDS011;66719;51.226;6.902;2023-05-15T02:27:59;69.67;;;28.17;;
4835;SDS011;66719;51.226;6.902;2023-05-15T02:31:10;63.10;;;31.67;;
4835;SDS011;66719;51.226;6.902;2023-05-15T02:36:07;77.43;;;36.70;;
4835;SDS011;66719;51.226;6.902;2023-05-15T02:38:38;88.03;;;36.07;;
4835;SDS011;66719;51.226;6.902;2023-05-15T02:41:09;75.33;;;37.27;;
4835;SDS011;66719;51.226;6.902;2023-05-15T02:43:36;69.90;;;35.50;;
4835;SDS011;66719;51.226;6.902;2023-05-15T02:46:04;62.10;;;33.70;;
4835;SDS011;66719;51.226;6.902;2023-05-15T02:48:33;62.23;;;33.50;;
4835;SDS011;66719;51.226;6.902;2023-05-15T02:51:00;62.10;;;33.63;;
4835;SDS011;66719;51.226;6.902;2023-05-15T02:53:27;64.97;;;31.70;;
4835;SDS011;66719;51.226;6.902;2023-05-15T02:55:54;47.20;;;29.63;;
4835;SDS011;66719;51.226;6.902;2023-05-15T02:58:21;51.93;;;29.30;;
4835;SDS011;66719;51.226;6.902;2023-05-15T03:00:47;50.67;;;29.00;;
4835;SDS011;66719;51.226;6.902;2023-05-15T03:03:14;52.90;;;30.50;;
4835;SDS011;66719;51.226;6.902;2023-05-15T03:05:40;47.90;;;27.30;;
4835;SDS011;66719;51.226;6.902;2023-05-15T03:08:07;49.20;;;29.70;;
4835;SDS011;66719;51.226;6.902;2023-05-15T03:10:33;55.70;;;30.37;;
4835;SDS011;66719;51.226;6.902;2023-05-15T03:13:00;52.47;;;29.57;;
4835;SDS011;66719;51.226;6.902;2023-05-15T03:15:27;65.23;;;28.50;;
4835;SDS011;66719;51.226;6.902;2023-05-15T03:17:53;45.30;;;26.70;;
4835;SDS011;66719;51.226;6.902;2023-05-15T03:20:20;46.97;;;26.30;;
4835;SDS011;66719;51.226;6.902;2023-05-15T03:22:47;47.40;;;24.87;;
4835;SDS011;66719;51.226;6.902;2023-05-15T03:25:13;42.00;;;24.63;;
4835;SDS011;66719;51.226;6.902;2023-05-15T03:27:41;46.83;;;25.87;;
4835;SDS011;66719;51.226;6.902;2023-05-15T03:30:07;49.73;;;26.43;;
4835;SDS011;66719;51.226;6.902;2023-05-15T03:32:34;43.00;;;25.07;;
4835;SDS011;66719;51.226;6.902;2023-05-15T03:35:01;46.10;;;26.73;;
4835;SDS011;66719;51.226;6.902;2023-05-15T03:37:27;45.80;;;26.97;;
4835;SDS011;66719;51.226;6.902;2023-05-15T03:39:54;46.23;;;28.27;;
4835;SDS011;66719;51.226;6.902;2023-05-15T03:42:21;45.60;;;28.53;;
4835;SDS011;66719;51.226;6.902;2023-05-15T03:44:49;59.00;;;32.33;;
4835;SDS011;66719;51.226;6.902;2023-05-15T03:47:16;65.33;;;35.30;;
4835;SDS011;66719;51.226;6.902;2023-05-15T03:49:43;55.83;;;31.60;;
4835;SDS011;66719;51.226;6.902;2023-05-15T03:52:10;56.30;;;32.23;;
4835;SDS011;66719;51.226;6.902;2023-05-15T03:54:37;58.47;;;33.40;;
4835;SDS011;66719;51.226;6.902;2023-05-15T03:57:05;96.63;;;49.60;;
4835;SDS011;66719;51.226;6.902;2023-05-15T03:59:32;86.63;;;43.07;;
4835;SDS011;66719;51.226;6.902;2023-05-15T04:01:58;79.50;;;42.63;;
4835;SDS011;66719;51.226;6.902;2023-05-15T04:04:30;75.60;;;38.27;;
4835;SDS011;66719;51.226;6.902;2023-05-15T04:06:57;69.93;;;38.10;;
4835;SDS011;66719;51.226;6.902;2023-05-15T04:09:23;75.67;;;42.10;;
4835;SDS011;66719;51.226;6.902;2023-05-15T04:11:50;76.43;;;39.10;;
4835;SDS011;66719;51.226;6.902;2023-05-15T04:14:16;92.83;;;45.17;;
4835;SDS011;66719;51.226;6.902;2023-05-15T04:16:43;82.63;;;43.73;;
4835;SDS011;66719;51.226;6.902;2023-05-15T04:19:09;103.67;;;51.80;;
4835;SDS011;66719;51.226;6.902;2023-05-15T04:21:36;111.83;;;53.10;;
4835;SDS011;66719;51.226;6.902;2023-05-15T04:24:02;106.03;;;54.13;;
4835;SDS011;66719;51.226;6.902;2023-05-15T04:26:29;124.57;;;58.17;;
4835;SDS011;66719;51.226;6.902;2023-05-15T04:28:56;107.13;;;57.07;;
4835;SDS011;66719;51.226;6.902;2023-05-15T04:31:29;106.37;;;58.97;;
4835;SDS011;66719;51.226;6.902;2023-05-15T04:33:56;122.07;;;59.20;;
4835;SDS011;66719;51.226;6.902;2023-05-15T04:36:23;113.60;;;57.57;;
4835;SDS011;66719;51.226;6.902;2023-05-15T04:38:49;120.43;;;60.83;;
4835;SDS011;66719;51.226;6.902;2023-05-15T04:41:16;121.43;;;59.43;;
4835;SDS011;66719;51.226;6.902;2023-05-15T04:43:43;129.97;;;64.60;;
4835;SDS011;66719;51.226;6.902;2023-05-15T04:46:10;125.80;;;67.13;;
4835;SDS011;66719;51.226;6.902;2023-05-15T04:48:36;123.50;;;65.30;;
4835;SDS011;66719;51.226;6.902;2023-05-15T04:51:03;145.17;;;72.10;;
4835;SDS011;66719;51.226;6.902;2023-05-15T04:53:29;124.70;;;66.10;;
4835;SDS011;66719;51.226;6.902;2023-05-15T04:55:56;123.20;;;66.10;;
4835;SDS011;66719;51.226;6.902;2023-05-15T04:58:22;121.20;;;66.53;;
4835;SDS011;66719;51.226;6.902;2023-05-15T05:00:49;128.60;;;68.80;;
4835;SDS011;66719;51.226;6.902;2023-05-15T05:03:16;128.33;;;69.00;;
4835;SDS011;66719;51.226;6.902;2023-05-15T05:05:42;128.13;;;68.43;;
4835;SDS011;66719;51.226;6.902;2023-05-15T05:08:09;126.37;;;65.17;;
4835;SDS011;66719;51.226;6.902;2023-05-15T05:10:35;127.60;;;64.07;;
4835;SDS011;66719;51.226;6.902;2023-05-15T05:13:02;123.00;;;65.07;;
4835;SDS011;66719;51.226;6.902;2023-05-15T05:15:28;131.20;;;66.23;;
4835;SDS011;66719;51.226;6.902;2023-05-15T05:17:55;120.33;;;63.60;;
4835;SDS011;66719;51.226;6.902;2023-05-15T05:20:21;114.20;;;58.60;;
4835;SDS011;66719;51.226;6.902;2023-05-15T05:22:48;114.83;;;62.23;;
4835;SDS011;66719;51.226;6.902;2023-05-15T05:25:14;109.83;;;57.13;;
4835;SDS011;66719;51.226;6.902;2023-05-15T05:27:41;113.63;;;58.97;;
4835;SDS011;66719;51.226;6.902;2023-05-15T05:30:08;118.87;;;59.10;;
4835;SDS011;66719;51.226;6.902;2023-05-15T05:32:35;109.03;;;56.93;;
4835;SDS011;66719;51.226;6.902;2023-05-15T05:35:01;108.73;;;58.13;;
4835;SDS011;66719;51.226;6.902;2023-05-15T05:37:29;92.57;;;53.10;;
4835;SDS011;66719;51.226;6.902;2023-05-15T05:39:55;115.67;;;61.90;;
4835;SDS011;66719;51.226;6.902;2023-05-15T05:42:22;106.67;;;54.10;;
4835;SDS011;66719;51.226;6.902;2023-05-15T05:44:48;89.90;;;49.30;;
4835;SDS011;66719;51.226;6.902;2023-05-15T05:47:15;84.83;;;48.50;;
4835;SDS011;66719;51.226;6.902;2023-05-15T05:49:41;90.33;;;49.97;;
4835;SDS011;66719;51.226;6.902;2023-05-15T05:52:08;85.83;;;47.07;;
4835;SDS011;66719;51.226;6.902;2023-05-15T05:54:35;79.77;;;45.03;;
4835;SDS011;66719;51.226;6.902;2023-05-15T05:57:02;80.77;;;43.13;;
4835;SDS011;66719;51.226;6.902;2023-05-15T05:59:28;62.73;;;33.03;;
4835;SDS011;66719;51.226;6.902;2023-05-15T06:01:55;59.67;;;35.80;;
4835;SDS011;66719;51.226;6.902;2023-05-15T06:04:22;49.80;;;30.70;;
4835;SDS011;66719;51.226;6.902;2023-05-15T06:06:49;51.03;;;29.53;;
4835;SDS011;66719;51.226;6.902;2023-05-15T06:09:15;55.70;;;30.00;;
4835;SDS011;66719;51.226;6.902;2023-05-15T06:11:42;54.00;;;31.13;;
4835;SDS011;66719;51.226;6.902;2023-05-15T06:14:08;46.10;;;29.43;;
4835;SDS011;66719;51.226;6.902;2023-05-15T06:16:35;47.37;;;30.40;;
4835;SDS011;66719;51.226;6.902;2023-05-15T06:19:02;50.43;;;30.90;;
4835;SDS011;66719;51.226;6.902;2023-05-15T06:21:28;47.63;;;31.60;;
4835;SDS011;66719;51.226;6.902;2023-05-15T06:23:55;48.47;;;29.97;;
4835;SDS011;66719;51.226;6.902;2023-05-15T06:26:21;52.50;;;31.30;;
4835;SDS011;66719;51.226;6.902;2023-05-15T06:28:48;50.57;;;32.67;;
4835;SDS011;66719;51.226;6.902;2023-05-15T06:31:14;47.30;;;30.90;;
4835;SDS011;66719;51.226;6.902;2023-05-15T06:33:42;50.80;;;31.37;;
4835;SDS011;66719;51.226;6.902;2023-05-15T06:36:10;54.40;;;31.77;;
4835;SDS011;66719;51.226;6.902;2023-05-15T06:38:36;56.90;;;31.60;;
4835;SDS011;66719;51.226;6.902;2023-05-15T06:41:03;64.50;;;31.00;;
4835;SDS011;66719;51.226;6.902;2023-05-15T06:43:29;48.60;;;30.63;;
4835;SDS011;66719;51.226;6.902;2023-05-15T06:45:56;51.80;;;30.20;;
4835;SDS011;66719;51.226;6.902;2023-05-15T06:48:22;52.27;;;31.93;;
4835;SDS011;66719;51.226;6.902;2023-05-15T06:50:49;44.73;;;29.83;;
4835;SDS011;66719;51.226;6.902;2023-05-15T06:53:15;47.10;;;30.90;;
4835;SDS011;66719;51.226;6.902;2023-05-15T06:55:42;57.77;;;34.87;;
4835;SDS011;66719;51.226;6.902;2023-05-15T06:58:09;55.23;;;36.23;;
4835;SDS011;66719;51.226;6.902;2023-05-15T07:00:35;54.93;;;34.23;;
4835;SDS011;66719;51.226;6.902;2023-05-15T07:03:02;52.67;;;35.63;;
4835;SDS011;66719;51.226;6.902;2023-05-15T07:05:29;55.03;;;35.97;;
4835;SDS011;66719;51.226;6.902;2023-05-15T07:07:55;53.43;;;35.97;;
4835;SDS011;66719;51.226;6.902;2023-05-15T07:10:22;60.63;;;39.90;;
4835;SDS011;66719;51.226;6.902;2023-05-15T07:12:49;57.87;;;39.20;;
4835;SDS011;66719;51.226;6.902;2023-05-15T07:15:15;52.10;;;35.00;;
4835;SDS011;66719;51.226;6.902;2023-05-15T07:17:42;57.23;;;35.17;;
4835;SDS011;66719;51.226;6.902;2023-05-15T07:20:09;58.60;;;39.10;;
4835;SDS011;66719;51.226;6.902;2023-05-15T07:22:37;60.10;;;39.03;;
4835;SDS011;66719;51.226;6.902;2023-05-15T07:25:20;59.47;;;38.80;;
4835;SDS011;66719;51.226;6.902;2023-05-15T07:27:47;49.63;;;35.70;;
4835;SDS011;66719;51.226;6.902;2023-05-15T07:30:13;56.50;;;37.00;;
4835;SDS011;66719;51.226;6.902;2023-05-15T07:32:40;55.20;;;37.50;;
4835;SDS011;66719;51.226;6.902;2023-05-15T07:35:07;78.30;;;48.47;;
4835;SDS011;66719;51.226;6.902;2023-05-15T07:37:34;70.67;;;41.17;;
4835;SDS011;66719;51.226;6.902;2023-05-15T07:40:00;54.20;;;36.30;;
4835;SDS011;66719;51.226;6.902;2023-05-15T07:42:27;57.97;;;37.13;;
4835;SDS011;66719;51.226;6.902;2023-05-15T07:44:53;47.50;;;31.70;;
4835;SDS011;66719;51.226;6.902;2023-05-15T07:47:20;44.30;;;29.67;;
4835;SDS011;66719;51.226;6.902;2023-05-15T07:49:46;45.40;;;27.67;;
4835;SDS011;66719;51.226;6.902;2023-05-15T07:52:13;45.80;;;26.93;;
4835;SDS011;66719;51.226;6.902;2023-05-15T07:54:39;48.03;;;29.70;;
4835;SDS011;66719;51.226;6.902;2023-05-15T07:57:08;39.07;;;24.77;;
4835;SDS011;66719;51.226;6.902;2023-05-15T07:59:35;39.10;;;24.63;;
4835;SDS011;66719;51.226;6.902;2023-05-15T08:02:02;36.33;;;23.73;;
4835;SDS011;66719;51.226;6.902;2023-05-15T08:04:28;37.23;;;26.10;;
4835;SDS011;66719;51.226;6.902;2023-05-15T08:06:55;38.83;;;25.73;;
4835;SDS011;66719;51.226;6.902;2023-05-15T08:09:22;40.23;;;26.40;;
4835;SDS011;66719;51.226;6.902;2023-05-15T08:11:48;36.30;;;22.00;;
4835;SDS011;66719;51.226;6.902;2023-05-15T08:14:15;34.70;;;21.80;;
4835;SDS011;66719;51.226;6.902;2023-05-15T08:16:41;43.70;;;23.10;;
4835;SDS011;66719;51.226;6.902;2023-05-15T08:19:08;37.40;;;23.33;;
4835;SDS011;66719;51.226;6.902;2023-05-15T08:21:35;42.90;;;24.60;;
4835;SDS011;66719;51.226;6.902;2023-05-15T08:24:02;36.37;;;24.57;;
4835;SDS011;66719;51.226;6.902;2023-05-15T08:26:28;44.83;;;25.43;;
4835;SDS011;66719;51.226;6.902;2023-05-15T08:28:55;36.60;;;24.50;;
4835;SDS011;66719;51.226;6.902;2023-05-15T08:31:21;37.40;;;24.10;;
4835;SDS011;66719;51.226;6.902;2023-05-15T08:33:48;34.90;;;22.73;;
4835;SDS011;66719;51.226;6.902;2023-05-15T08:36:14;34.47;;;21.97;;
4835;SDS011;66719;51.226;6.902;2023-05-15T08:38:43;38.70;;;22.40;;
4835;SDS011;66719;51.226;6.902;2023-05-15T08:41:11;36.80;;;23.27;;
4835;SDS011;66719;51.226;6.902;2023-05-15T08:44:05;31.97;;;20.50;;
4835;SDS011;66719;51.226;6.902;2023-05-15T08:46:34;32.27;;;20.73;;
4835;SDS011;66719;51.226;6.902;2023-05-15T08:49:02;33.40;;;21.00;;
4835;SDS011;66719;51.226;6.902;2023-05-15T08:51:40;37.73;;;20.47;;
4835;SDS011;66719;51.226;6.902;2023-05-15T08:54:07;34.70;;;21.07;;
4835;SDS011;66719;51.226;6.902;2023-05-15T08:56:33;34.23;;;20.97;;
4835;SDS011;66719;51.226;6.902;2023-05-15T08:59:01;29.57;;;20.00;;
4835;SDS011;66719;51.226;6.902;2023-05-15T09:01:29;36.43;;;20.20;;
4835;SDS011;66719;51.226;6.902;2023-05-15T09:03:55;33.87;;;20.03;;
4835;SDS011;66719;51.226;6.902;2023-05-15T09:06:22;36.13;;;19.60;;
4835;SDS011;66719;51.226;6.902;2023-05-15T09:08:50;32.43;;;19.47;;
4835;SDS011;66719;51.226;6.902;2023-05-15T09:11:22;30.17;;;18.50;;
4835;SDS011;66719;51.226;6.902;2023-05-15T09:13:49;35.03;;;19.90;;
4835;SDS011;66719;51.226;6.902;2023-05-15T09:16:16;36.43;;;20.60;;
4835;SDS011;66719;51.226;6.902;2023-05-15T09:18:43;32.17;;;19.03;;
4835;SDS011;66719;51.226;6.902;2023-05-15T09:21:23;28.50;;;17.43;;
4835;SDS011;66719;51.226;6.902;2023-05-15T09:23:51;34.43;;;19.17;;
4835;SDS011;66719;51.226;6.902;2023-05-15T09:26:19;29.17;;;17.47;;
4835;SDS011;66719;51.226;6.902;2023-05-15T09:28:47;36.63;;;19.20;;
4835;SDS011;66719;51.226;6.902;2023-05-15T09:31:17;32.27;;;19.10;;
4835;SDS011;66719;51.226;6.902;2023-05-15T09:33:44;28.30;;;17.27;;
4835;SDS011;66719;51.226;6.902;2023-05-15T09:36:11;32.00;;;17.90;;
4835;SDS011;66719;51.226;6.902;2023-05-15T09:38:46;31.77;;;17.30;;
4835;SDS011;66719;51.226;6.902;2023-05-15T09:41:14;28.90;;;17.60;;
4835;SDS011;66719;51.226;6.902;2023-05-15T09:43:50;35.20;;;17.93;;
4835;SDS011;66719;51.226;6.902;2023-05-15T09:46:16;26.53;;;17.10;;
4835;SDS011;66719;51.226;6.902;2023-05-15T09:48:43;30.60;;;15.90;;
4835;SDS011;66719;51.226;6.902;2023-05-15T09:51:13;30.97;;;16.50;;
4835;SDS011;66719;51.226;6.902;2023-05-15T09:53:41;28.23;;;17.10;;
4835;SDS011;66719;51.226;6.902;2023-05-15T09:56:08;34.10;;;19.10;;
4835;SDS011;66719;51.226;6.902;2023-05-15T09:58:35;27.70;;;15.93;;
4835;SDS011;66719;51.226;6.902;2023-05-15T10:01:02;31.03;;;16.40;;
4835;SDS011;66719;51.226;6.902;2023-05-15T10:03:29;30.30;;;15.50;;
4835;SDS011;66719;51.226;6.902;2023-05-15T10:05:59;25.77;;;15.20;;
4835;SDS011;66719;51.226;6.902;2023-05-15T10:08:27;28.10;;;15.93;;
4835;SDS011;66719;51.226;6.902;2023-05-15T10:10:54;24.97;;;14.97;;
4835;SDS011;66719;51.226;6.902;2023-05-15T10:13:25;28.10;;;13.90;;
4835;SDS011;66719;51.226;6.902;2023-05-15T10:15:51;24.87;;;13.77;;
4835;SDS011;66719;51.226;6.902;2023-05-15T10:18:20;25.93;;;14.53;;
4835;SDS011;66719;51.226;6.902;2023-05-15T10:20:50;27.70;;;13.60;;
4835;SDS011;66719;51.226;6.902;2023-05-15T10:23:16;23.83;;;14.03;;
4835;SDS011;66719;51.226;6.902;2023-05-15T10:25:57;24.70;;;14.53;;
4835;SDS011;66719;51.226;6.902;2023-05-15T10:28:28;23.47;;;14.10;;
4835;SDS011;66719;51.226;6.902;2023-05-15T10:30:57;24.90;;;12.10;;
4835;SDS011;66719;51.226;6.902;2023-05-15T10:33:26;22.70;;;9.83;;
4835;SDS011;66719;51.226;6.902;2023-05-15T10:35:55;22.60;;;10.50;;
4835;SDS011;66719;51.226;6.902;2023-05-15T10:38:21;24.57;;;12.00;;
4835;SDS011;66719;51.226;6.902;2023-05-15T10:40:49;18.40;;;10.43;;
4835;SDS011;66719;51.226;6.902;2023-05-15T10:43:27;56.97;;;11.87;;
4835;SDS011;66719;51.226;6.902;2023-05-15T10:45:55;27.17;;;12.90;;
4835;SDS011;66719;51.226;6.902;2023-05-15T10:48:22;23.20;;;11.90;;
4835;SDS011;66719;51.226;6.902;2023-05-15T10:50:50;28.37;;;13.00;;
4835;SDS011;66719;51.226;6.902;2023-05-15T10:53:17;26.50;;;13.10;;
4835;SDS011;66719;51.226;6.902;2023-05-15T10:55:47;22.63;;;11.97;;
4835;SDS011;66719;51.226;6.902;2023-05-15T10:58:14;21.20;;;12.40;;
4835;SDS011;66719;51.226;6.902;2023-05-15T11:00:41;26.33;;;12.90;;
4835;SDS011;66719;51.226;6.902;2023-05-15T11:03:13;24.37;;;12.30;;
4835;SDS011;66719;51.226;6.902;2023-05-15T11:08:35;22.43;;;13.70;;
4835;SDS011;66719;51.226;6.902;2023-05-15T11:11:03;27.13;;;14.17;;
4835;SDS011;66719;51.226;6.902;2023-05-15T11:19:22;23.10;;;13.43;;
4835;SDS011;66719;51.226;6.902;2023-05-15T11:22:34;23.47;;;14.87;;
4835;SDS011;66719;51.226;6.902;2023-05-15T11:25:03;23.13;;;13.83;;
4835;SDS011;66719;51.226;6.902;2023-05-15T11:27:32;30.50;;;16.23;;
4835;SDS011;66719;51.226;6.902;2023-05-15T11:30:13;29.50;;;16.10;;
4835;SDS011;66719;51.226;6.902;2023-05-15T11:35:34;24.37;;;12.17;;
4835;SDS011;66719;51.226;6.902;2023-05-15T11:43:29;27.90;;;14.37;;
4835;SDS011;66719;51.226;6.902;2023-05-15T11:51:00;21.33;;;12.40;;
4835;SDS011;66719;51.226;6.902;2023-05-15T11:53:28;27.17;;;13.60;;
4835;SDS011;66719;51.226;6.902;2023-05-15T11:55:55;24.23;;;14.93;;
4835;SDS011;66719;51.226;6.902;2023-05-15T11:58:22;21.33;;;11.57;;
4835;SDS011;66719;51.226;6.902;2023-05-15T12:00:51;21.60;;;9.70;;
4835;SDS011;66719;51.226;6.902;2023-05-15T12:03:25;19.23;;;10.40;;
4835;SDS011;66719;51.226;6.902;2023-05-15T12:05:57;17.93;;;9.97;;
4835;SDS011;66719;51.226;6.902;2023-05-15T12:08:30;26.23;;;10.67;;
4835;SDS011;66719;51.226;6.902;2023-05-15T12:10:59;20.13;;;9.80;;
4835;SDS011;66719;51.226;6.902;2023-05-15T12:13:26;20.53;;;9.03;;
4835;SDS011;66719;51.226;6.902;2023-05-15T12:15:54;20.63;;;10.07;;
4835;SDS011;66719;51.226;6.902;2023-05-15T12:18:21;19.83;;;9.17;;
4835;SDS011;66719;51.226;6.902;2023-05-15T12:20:49;20.20;;;10.07;;
4835;SDS011;66719;51.226;6.902;2023-05-15T12:23:19;21.37;;;10.07;;
4835;SDS011;66719;51.226;6.902;2023-05-15T12:25:46;26.73;;;11.13;;
4835;SDS011;66719;51.226;6.902;2023-05-15T12:28:16;19.70;;;9.30;;
4835;SDS011;66719;51.226;6.902;2023-05-15T12:30:43;18.50;;;9.20;;
4835;SDS011;66719;51.226;6.902;2023-05-15T12:33:10;18.83;;;10.30;;
4835;SDS011;66719;51.226;6.902;2023-05-15T12:35:40;17.83;;;9.30;;
4835;SDS011;66719;51.226;6.902;2023-05-15T12:38:10;19.23;;;10.60;;
4835;SDS011;66719;51.226;6.902;2023-05-15T12:40:41;17.40;;;8.40;;
4835;SDS011;66719;51.226;6.902;2023-05-15T12:43:09;18.80;;;10.10;;
4835;SDS011;66719;51.226;6.902;2023-05-15T12:45:40;20.40;;;10.73;;
4835;SDS011;66719;51.226;6.902;2023-05-15T12:48:11;20.63;;;10.80;;
4835;SDS011;66719;51.226;6.902;2023-05-15T12:50:42;17.97;;;10.00;;
4835;SDS011;66719;51.226;6.902;2023-05-15T12:53:11;17.70;;;8.90;;
4835;SDS011;66719;51.226;6.902;2023-05-15T12:55:40;20.07;;;7.97;;
4835;SDS011;66719;51.226;6.902;2023-05-15T12:58:09;17.37;;;9.00;;
4835;SDS011;66719;51.226;6.902;2023-05-15T13:00:38;16.90;;;7.60;;
4835;SDS011;66719;51.226;6.902;2023-05-15T13:03:10;16.67;;;8.27;;
4835;SDS011;66719;51.226;6.902;2023-05-15T13:05:38;19.90;;;8.93;;
4835;SDS011;66719;51.226;6.902;2023-05-15T13:08:08;21.90;;;9.30;;
4835;SDS011;66719;51.226;6.902;2023-05-15T13:10:35;16.53;;;8.23;;
4835;SDS011;66719;51.226;6.902;2023-05-15T13:13:02;19.37;;;8.90;;
4835;SDS011;66719;51.226;6.902;2023-05-15T13:15:30;18.13;;;9.40;;
4835;SDS011;66719;51.226;6.902;2023-05-15T13:18:02;20.87;;;10.77;;
4835;SDS011;66719;51.226;6.902;2023-05-15T13:20:43;18.03;;;9.63;;
4835;SDS011;66719;51.226;6.902;2023-05-15T13:23:11;27.50;;;11.07;;
4835;SDS011;66719;51.226;6.902;2023-05-15T13:25:40;17.97;;;10.03;;
4835;SDS011;66719;51.226;6.902;2023-05-15T13:28:07;22.40;;;12.23;;
4835;SDS011;66719;51.226;6.902;2023-05-15T13:30:36;21.03;;;11.33;;
4835;SDS011;66719;51.226;6.902;2023-05-15T13:33:06;15.17;;;7.63;;
4835;SDS011;66719;51.226;6.902;2023-05-15T13:35:34;15.60;;;7.23;;
4835;SDS011;66719;51.226;6.902;2023-05-15T13:38:01;14.60;;;6.67;;
4835;SDS011;66719;51.226;6.902;2023-05-15T13:40:28;17.30;;;7.40;;
4835;SDS011;66719;51.226;6.902;2023-05-15T13:42:56;16.40;;;7.50;;
4835;SDS011;66719;51.226;6.902;2023-05-15T13:45:22;16.87;;;8.50;;
4835;SDS011;66719;51.226;6.902;2023-05-15T13:47:49;14.83;;;7.83;;
4835;SDS011;66719;51.226;6.902;2023-05-15T13:50:16;24.17;;;6.80;;
4835;SDS011;66719;51.226;6.902;2023-05-15T13:52:43;14.57;;;6.13;;
4835;SDS011;66719;51.226;6.902;2023-05-15T13:55:09;15.03;;;6.23;;
4835;SDS011;66719;51.226;6.902;2023-05-15T13:57:40;16.23;;;7.87;;
4835;SDS011;66719;51.226;6.902;2023-05-15T14:00:08;19.83;;;12.37;;
4835;SDS011;66719;51.226;6.902;2023-05-15T14:02:41;24.50;;;13.70;;
4835;SDS011;66719;51.226;6.902;2023-05-15T14:05:09;21.97;;;14.90;;
4835;SDS011;66719;51.226;6.902;2023-05-15T14:07:37;25.53;;;17.10;;
4835;SDS011;66719;51.226;6.902;2023-05-15T14:10:04;30.83;;;18.43;;
4835;SDS011;66719;51.226;6.902;2023-05-15T14:12:31;26.50;;;17.07;;
4835;SDS011;66719;51.226;6.902;2023-05-15T14:14:58;27.07;;;17.53;;
4835;SDS011;66719;51.226;6.902;2023-05-15T14:17:25;32.73;;;19.03;;
4835;SDS011;66719;51.226;6.902;2023-05-15T14:19:53;28.57;;;17.10;;
4835;SDS011;66719;51.226;6.902;2023-05-15T14:22:20;25.70;;;15.30;;
4835;SDS011;66719;51.226;6.902;2023-05-15T14:24:50;27.73;;;17.10;;
4835;SDS011;66719;51.226;6.902;2023-05-15T14:27:19;28.53;;;17.83;;
4835;SDS011;66719;51.226;6.902;2023-05-15T14:29:46;36.07;;;17.97;;
4835;SDS011;66719;51.226;6.902;2023-05-15T14:32:14;28.23;;;18.10;;
4835;SDS011;66719;51.226;6.902;2023-05-15T14:34:42;31.50;;;17.50;;
4835;SDS011;66719;51.226;6.902;2023-05-15T14:37:08;26.37;;;17.20;;
4835;SDS011;66719;51.226;6.902;2023-05-15T14:39:35;27.30;;;17.63;;
4835;SDS011;66719;51.226;6.902;2023-05-15T14:42:01;31.40;;;17.33;;
4835;SDS011;66719;51.226;6.902;2023-05-15T14:44:28;28.03;;;16.77;;
4835;SDS011;66719;51.226;6.902;2023-05-15T14:47:10;27.53;;;17.40;;
4835;SDS011;66719;51.226;6.902;2023-05-15T14:49:38;25.73;;;16.17;;
4835;SDS011;66719;51.226;6.902;2023-05-15T14:52:07;26.07;;;15.87;;
4835;SDS011;66719;51.226;6.902;2023-05-15T14:54:34;34.83;;;16.13;;
4835;SDS011;66719;51.226;6.902;2023-05-15T14:57:01;27.10;;;16.30;;
4835;SDS011;66719;51.226;6.902;2023-05-15T14:59:29;26.07;;;16.37;;
4835;SDS011;66719;51.226;6.902;2023-05-15T15:01:55;23.90;;;14.53;;
4835;SDS011;66719;51.226;6.902;2023-05-15T15:04:22;26.77;;;14.70;;
4835;SDS011;66719;51.226;6.902;2023-05-15T15:06:48;26.43;;;16.97;;
4835;SDS011;66719;51.226;6.902;2023-05-15T15:09:15;31.93;;;14.67;;
4835;SDS011;66719;51.226;6.902;2023-05-15T15:11:44;22.50;;;14.40;;
4835;SDS011;66719;51.226;6.902;2023-05-15T15:14:11;25.03;;;16.23;;
4835;SDS011;66719;51.226;6.902;2023-05-15T15:16:37;27.03;;;14.97;;